Main page
METAR-TAF:

METAR-TAF

Airports :

Wattisham Flying Station

Wattisham, England

latitude: 52-07N, longitude: 000-58E, elevation: 87 m

Current weather observation

The report was made 55 minutes ago, at 01:50 UTC
Wind 7 kt from the Northeast
Temperature 19°C
Humidity 94%
Pressure 1014 hPa
Visibility: 6000 m
mist

METAR: EGUW 150150Z AUTO 05007KT 6000 BR OVC003/// 19/18 Q1014

Time: 03:45 (02:45 UTC)

Forecast

The report was made 13 hours and 2 minutes ago, at 13:43 UTC
Forecast valid from 14 at 15 UTC to 14 at 18 UTC
Wind 5 kt from the Northeast
Visibility 10 km or more
Broken clouds at a height of 2600 ft
Probability 40% :
Temporary
from 14 at 15 UTC to 14 at 18 UTC
Wind 20 kt from variable directions with gusts up to 30 kt
Visibility: 3000 m
Broken clouds at a height of 4000 ft, Cumulonimbus.
thunderstorm, heavy rain

TAF: EGUW 141343Z 1415/1418 05005KT 9999 BKN026 PROB40 TEMPO 1415/1418 VRB20G30KT 3000 +TSRA BKN040CB

Weather observations and forecasts of more than 4000 airports (METAR and TAF reports).

The available stations are represented by yellow and red dots on the map.

Hover mouse over dot to see the name of the station.

Then click to see weather observations and forecasts.

To change the map : click on the green buttons with a black cross to zoom in, on the green button with a dash to zoom out, or on the green arrows for adjacent maps.


METAR-TAF: